createdAt,value
2022-11-21T00:01:01.117Z,8.10
2022-11-21T00:03:27.868Z,8.20
2022-11-21T00:05:54.616Z,8.20
2022-11-21T00:08:22.059Z,8.10
2022-11-21T00:10:49.314Z,8.10
2022-11-21T00:13:19.017Z,8.10
2022-11-21T00:15:47.303Z,8.10
2022-11-21T00:18:14.424Z,8.10
2022-11-21T00:20:42.621Z,8.10
2022-11-21T00:23:10.007Z,8.10
2022-11-21T00:25:37.579Z,8.10
2022-11-21T00:28:05.267Z,8.10
2022-11-21T00:30:31.996Z,8.10
2022-11-21T00:32:59.155Z,8.10
2022-11-21T00:35:26.076Z,8.10
2022-11-21T00:37:53.024Z,8.10
2022-11-21T00:40:20.037Z,8.10
2022-11-21T00:42:46.773Z,8.10
2022-11-21T00:45:13.540Z,8.10
2022-11-21T00:47:40.281Z,8.20
2022-11-21T00:50:07.565Z,8.10
2022-11-21T00:52:34.387Z,8.10
2022-11-21T00:55:01.221Z,8.10
2022-11-21T00:57:28.150Z,8.10
2022-11-21T00:59:54.900Z,8.10
2022-11-21T01:02:21.781Z,8.10
2022-11-21T01:04:48.529Z,8.10
2022-11-21T01:07:15.459Z,8.00
2022-11-21T01:09:42.271Z,8.10
2022-11-21T01:12:09.088Z,8.00
2022-11-21T01:14:35.928Z,8.00
2022-11-21T01:17:02.712Z,7.90
2022-11-21T01:19:29.452Z,7.90
2022-11-21T01:21:56.215Z,7.80
2022-11-21T01:24:23.086Z,7.70
2022-11-21T01:26:51.099Z,7.80
2022-11-21T01:29:17.956Z,7.70
2022-11-21T01:31:44.746Z,7.70
2022-11-21T01:34:11.579Z,7.70
2022-11-21T01:36:38.295Z,7.70
2022-11-21T01:39:06.888Z,7.60
2022-11-21T01:41:44.845Z,7.70
2022-11-21T01:44:44.788Z,7.60
2022-11-21T01:47:12.861Z,7.60
2022-11-21T01:49:42.215Z,7.60
2022-11-21T01:52:18.379Z,7.50
2022-11-21T01:54:53.429Z,7.50
2022-11-21T01:57:37.880Z,7.60
2022-11-21T02:00:18.800Z,7.60
2022-11-21T02:02:51.191Z,7.50
2022-11-21T02:05:25.212Z,7.60
2022-11-21T02:07:55.534Z,7.60
2022-11-21T02:10:22.978Z,7.50
2022-11-21T02:12:51.850Z,7.60
2022-11-21T02:15:21.554Z,7.60
2022-11-21T02:17:48.253Z,7.60
2022-11-21T02:20:18.523Z,7.50
2022-11-21T02:23:07.624Z,7.50
2022-11-21T02:25:37.116Z,7.50
2022-11-21T02:28:07.324Z,7.40
2022-11-21T02:30:37.660Z,7.40
2022-11-21T02:33:04.846Z,7.40
2022-11-21T02:35:33.786Z,7.30
2022-11-21T02:38:48.017Z,7.20
2022-11-21T02:41:26.576Z,7.20
2022-11-21T02:43:59.256Z,7.20
2022-11-21T02:46:27.939Z,7.20
2022-11-21T02:48:56.505Z,7.10
2022-11-21T02:51:23.388Z,7.10
2022-11-21T02:53:50.200Z,7.10
2022-11-21T02:56:17.496Z,7.10
2022-11-21T02:58:44.700Z,7.10
2022-11-21T03:01:11.488Z,7.00
2022-11-21T03:03:38.470Z,6.90
2022-11-21T03:06:05.356Z,7.00
2022-11-21T03:08:32.189Z,6.90
2022-11-21T03:10:58.960Z,7.00
2022-11-21T03:13:25.756Z,7.10
2022-11-21T03:15:52.652Z,7.10
2022-11-21T03:18:19.418Z,7.00
2022-11-21T03:20:46.188Z,7.00
2022-11-21T03:23:12.933Z,7.10
2022-11-21T03:25:39.662Z,7.20
2022-11-21T03:28:06.375Z,7.20
2022-11-21T03:30:33.078Z,7.10
2022-11-21T03:32:59.850Z,7.10
2022-11-21T03:35:27.035Z,7.10
2022-11-21T03:37:53.979Z,7.10
2022-11-21T03:40:20.762Z,7.10
2022-11-21T03:42:47.521Z,7.10
2022-11-21T03:45:14.261Z,7.10
2022-11-21T03:47:41.243Z,7.20
2022-11-21T03:50:08.400Z,7.20
2022-11-21T03:52:35.176Z,7.20
2022-11-21T03:55:02.016Z,7.30
2022-11-21T03:57:28.788Z,7.30
2022-11-21T03:59:55.522Z,7.20
2022-11-21T04:02:22.239Z,7.20
2022-11-21T04:04:48.948Z,7.30
2022-11-21T04:07:16.589Z,7.20
2022-11-21T04:09:43.454Z,7.00
2022-11-21T04:12:10.404Z,7.00
2022-11-21T04:14:37.276Z,7.10
2022-11-21T04:17:04.073Z,7.00
2022-11-21T04:19:30.875Z,7.00
2022-11-21T04:21:57.664Z,7.10
2022-11-21T04:24:24.476Z,7.00
2022-11-21T04:26:51.224Z,6.90
2022-11-21T04:29:17.918Z,6.90
2022-11-21T04:31:44.644Z,6.80
2022-11-21T04:34:11.435Z,6.80
2022-11-21T04:36:38.261Z,6.80
2022-11-21T04:39:05.107Z,6.70
2022-11-21T04:41:31.963Z,6.60
2022-11-21T04:43:58.691Z,6.70
2022-11-21T04:46:25.497Z,6.70
2022-11-21T04:48:52.245Z,6.60
2022-11-21T04:51:19.148Z,6.70
2022-11-21T04:53:45.900Z,6.70
2022-11-21T04:56:16.330Z,6.70
2022-11-21T04:58:44.755Z,6.60
2022-11-21T05:01:12.101Z,6.50
2022-11-21T05:03:39.100Z,6.60
2022-11-21T05:06:05.953Z,6.40
2022-11-21T05:08:32.708Z,6.40
2022-11-21T05:11:18.334Z,6.50
2022-11-21T05:13:45.077Z,6.60
2022-11-21T05:16:11.872Z,6.60
2022-11-21T05:18:38.697Z,6.80
2022-11-21T05:21:05.502Z,6.70
2022-11-21T05:23:32.276Z,6.70
2022-11-21T05:25:59.057Z,6.80
2022-11-21T05:28:25.808Z,6.70
2022-11-21T05:30:53.349Z,6.60
2022-11-21T05:33:20.440Z,6.60
2022-11-21T05:35:47.377Z,6.40
2022-11-21T05:38:14.173Z,6.40
2022-11-21T05:40:40.935Z,6.50
2022-11-21T05:43:27.924Z,6.50
2022-11-21T05:45:54.634Z,6.60
2022-11-21T05:48:21.408Z,6.50
2022-11-21T05:50:51.795Z,6.40
2022-11-21T05:53:19.064Z,6.40
2022-11-21T05:55:46.510Z,6.30
2022-11-21T05:58:13.652Z,6.30
2022-11-21T06:00:40.410Z,6.30
2022-11-21T06:03:27.062Z,6.30
2022-11-21T06:06:01.509Z,6.30
2022-11-21T06:08:29.762Z,6.30
2022-11-21T06:10:56.698Z,6.30
2022-11-21T06:13:23.426Z,6.30
2022-11-21T06:15:53.007Z,6.30
2022-11-21T06:18:20.165Z,6.30
2022-11-21T06:20:47.094Z,6.40
2022-11-21T06:23:14.157Z,6.30
2022-11-21T06:25:40.956Z,6.40
2022-11-21T06:28:07.783Z,6.30
2022-11-21T06:30:35.013Z,6.40
2022-11-21T06:33:07.035Z,6.50
2022-11-21T06:35:36.931Z,6.40
2022-11-21T06:38:03.678Z,6.40
2022-11-21T06:40:30.422Z,6.40
2022-11-21T06:42:57.162Z,6.30
2022-11-21T06:45:23.931Z,6.20
2022-11-21T06:47:50.714Z,6.20
2022-11-21T06:50:17.595Z,6.20
2022-11-21T06:52:44.421Z,6.20
2022-11-21T06:55:11.462Z,6.20
2022-11-21T06:57:38.239Z,6.30
2022-11-21T07:00:06.012Z,6.30
2022-11-21T07:02:32.939Z,6.40
2022-11-21T07:04:59.636Z,6.30
2022-11-21T07:07:26.468Z,6.30
2022-11-21T07:09:53.211Z,6.30
2022-11-21T07:12:38.482Z,6.30
2022-11-21T07:15:05.598Z,6.30
2022-11-21T07:17:32.344Z,6.40
2022-11-21T07:19:59.111Z,6.40
2022-11-21T07:22:25.877Z,6.30
2022-11-21T07:24:52.703Z,6.20
2022-11-21T07:27:19.571Z,6.20
2022-11-21T07:29:46.371Z,6.10
2022-11-21T07:32:13.212Z,6.10
2022-11-21T07:34:39.943Z,6.10
2022-11-21T07:37:06.662Z,6.10
2022-11-21T07:39:33.425Z,6.10
2022-11-21T07:42:00.316Z,6.20
2022-11-21T07:44:27.081Z,6.30
2022-11-21T07:46:56.785Z,6.40
2022-11-21T07:49:23.714Z,6.40
2022-11-21T07:51:50.544Z,6.60
2022-11-21T07:54:17.356Z,6.70
2022-11-21T07:56:44.116Z,6.60
2022-11-21T07:59:10.869Z,6.70
2022-11-21T08:01:42.595Z,6.60
2022-11-21T08:04:11.834Z,6.60
2022-11-21T08:06:38.713Z,6.70
2022-11-21T08:09:05.378Z,6.70
2022-11-21T08:11:32.426Z,6.80
2022-11-21T08:13:59.637Z,6.90
2022-11-21T08:16:28.067Z,6.90
2022-11-21T08:18:54.898Z,6.80
2022-11-21T08:21:21.636Z,7.00
2022-11-21T08:23:48.823Z,7.00
2022-11-21T08:26:15.521Z,7.00
2022-11-21T08:28:42.254Z,7.20
2022-11-21T08:31:09.442Z,7.10
2022-11-21T08:33:36.381Z,7.20
2022-11-21T08:36:06.940Z,7.10
2022-11-21T08:38:33.867Z,7.10
2022-11-21T08:41:19.341Z,7.10
2022-11-21T08:43:46.204Z,7.10
2022-11-21T08:46:12.978Z,7.20
2022-11-21T08:48:39.745Z,7.20
2022-11-21T08:51:06.532Z,7.30
2022-11-21T08:53:33.279Z,7.30
2022-11-21T08:56:03.947Z,7.40
2022-11-21T08:58:31.402Z,7.40
2022-11-21T09:01:00.320Z,7.40
2022-11-21T09:03:31.019Z,7.50
2022-11-21T09:05:59.209Z,7.70
2022-11-21T09:08:26.628Z,7.70
2022-11-21T09:10:53.473Z,7.80
2022-11-21T09:13:20.323Z,7.90
2022-11-21T09:16:05.519Z,8.20
2022-11-21T09:18:32.492Z,8.50
2022-11-21T09:20:59.283Z,8.70
2022-11-21T09:23:26.441Z,8.90
2022-11-21T09:25:53.274Z,8.80
2022-11-21T09:28:20.088Z,9.00
2022-11-21T09:30:46.848Z,9.00
2022-11-21T09:33:16.784Z,8.70
2022-11-21T09:35:43.764Z,8.50
2022-11-21T09:38:10.819Z,8.40
2022-11-21T09:40:43.632Z,8.30
2022-11-21T09:43:38.503Z,8.60
2022-11-21T09:46:17.254Z,8.50
2022-11-21T09:48:58.852Z,8.60
2022-11-21T09:51:27.205Z,8.80
2022-11-21T09:54:27.326Z,8.80
2022-11-21T09:56:56.266Z,8.90
2022-11-21T09:59:39.130Z,8.90
2022-11-21T10:02:17.964Z,8.90
2022-11-21T10:04:47.160Z,8.80
2022-11-21T10:07:32.623Z,8.80
2022-11-21T10:10:11.185Z,8.90
2022-11-21T10:13:02.173Z,9.10
2022-11-21T10:16:03.298Z,9.00
2022-11-21T10:18:36.337Z,9.00
2022-11-21T10:21:06.061Z,9.00
2022-11-21T10:23:40.912Z,8.70
2022-11-21T10:26:34.366Z,8.60
2022-11-21T10:29:04.475Z,8.40
2022-11-21T10:31:36.792Z,8.40
2022-11-21T10:34:10.083Z,8.30
2022-11-21T10:36:39.950Z,8.50
2022-11-21T10:39:18.439Z,8.80
2022-11-21T10:41:58.917Z,8.80
2022-11-21T10:44:48.860Z,8.80
2022-11-21T10:47:30.906Z,8.80
2022-11-21T10:50:09.629Z,8.80
2022-11-21T10:52:45.203Z,9.20
2022-11-21T10:55:14.428Z,9.40
2022-11-21T10:57:51.048Z,9.40
2022-11-21T11:00:23.800Z,9.40
2022-11-21T11:03:06.740Z,9.40
2022-11-21T11:05:41.662Z,9.60
2022-11-21T11:08:09.455Z,10.10
2022-11-21T11:10:43.177Z,10.00
2022-11-21T11:13:45.671Z,10.10
2022-11-21T11:16:15.217Z,10.20
2022-11-21T11:18:49.107Z,10.20
2022-11-21T11:21:24.780Z,10.20
2022-11-21T11:23:53.480Z,10.00
2022-11-21T11:26:23.799Z,9.90
2022-11-21T11:28:50.617Z,10.10
2022-11-21T11:31:17.725Z,10.30
2022-11-21T11:33:47.239Z,10.40
2022-11-21T11:36:39.597Z,10.30
2022-11-21T11:39:32.336Z,10.20
2022-11-21T11:42:23.714Z,10.00
2022-11-21T11:45:25.885Z,10.20
2022-11-21T11:47:58.052Z,10.30
2022-11-21T11:50:36.515Z,10.00
2022-11-21T11:53:08.713Z,10.00
2022-11-21T11:55:45.111Z,9.90
2022-11-21T11:58:34.832Z,9.80
2022-11-21T12:01:12.548Z,9.90
2022-11-21T12:04:10.807Z,9.80
2022-11-21T12:07:36.147Z,9.80
2022-11-21T12:09:40.401Z,9.70
2022-11-21T12:12:25.661Z,9.70
2022-11-21T12:15:41.923Z,9.90
2022-11-21T12:18:21.019Z,9.80
2022-11-21T12:21:05.675Z,9.60
2022-11-21T12:23:47.063Z,9.90
2022-11-21T12:26:16.810Z,10.00
2022-11-21T12:29:21.299Z,10.20
2022-11-21T12:32:14.961Z,10.00
2022-11-21T12:35:18.025Z,9.70
2022-11-21T12:38:23.991Z,9.80
2022-11-21T12:41:30.268Z,9.80
2022-11-21T12:44:12.273Z,9.60
2022-11-21T12:46:47.903Z,9.70
2022-11-21T12:49:54.230Z,9.70
2022-11-21T12:53:10.202Z,10.00
2022-11-21T12:55:39.950Z,9.80
2022-11-21T12:58:22.211Z,10.00
2022-11-21T13:01:26.609Z,10.00
2022-11-21T13:04:05.381Z,10.10
2022-11-21T13:06:37.710Z,10.00
2022-11-21T13:09:09.800Z,10.30
2022-11-21T13:12:01.064Z,10.20
2022-11-21T13:15:02.341Z,10.00
2022-11-21T13:17:43.976Z,9.80
2022-11-21T13:20:23.567Z,9.80
2022-11-21T13:22:56.269Z,9.70
2022-11-21T13:25:31.888Z,9.70
2022-11-21T13:28:13.722Z,9.50
2022-11-21T13:30:52.028Z,9.40
2022-11-21T13:33:37.284Z,9.20
2022-11-21T13:36:33.818Z,9.20
2022-11-21T13:39:33.639Z,9.30
2022-11-21T13:42:21.865Z,9.40
2022-11-21T13:44:49.854Z,9.50
2022-11-21T13:47:25.851Z,9.50
2022-11-21T13:50:09.068Z,9.20
2022-11-21T13:52:35.676Z,9.10
2022-11-21T13:55:08.608Z,9.10
2022-11-21T13:57:38.268Z,9.20
2022-11-21T14:00:46.049Z,9.20
2022-11-21T14:03:28.112Z,9.20
2022-11-21T14:06:05.318Z,9.10
2022-11-21T14:08:32.283Z,9.30
2022-11-21T14:10:59.222Z,9.30
2022-11-21T14:13:32.243Z,9.20
2022-11-21T14:16:17.944Z,9.10
2022-11-21T14:18:47.174Z,8.90
2022-11-21T14:21:32.638Z,9.00
2022-11-21T14:24:05.656Z,8.90
2022-11-21T14:26:39.684Z,8.90
2022-11-21T14:29:37.622Z,9.00
2022-11-21T14:32:04.867Z,9.00
2022-11-21T14:34:35.631Z,8.80
2022-11-21T14:37:06.143Z,8.70
2022-11-21T14:39:44.385Z,8.70
2022-11-21T14:42:15.365Z,8.60
2022-11-21T14:44:42.386Z,8.40
2022-11-21T14:47:26.772Z,8.40
2022-11-21T14:49:55.575Z,8.40
2022-11-21T14:52:30.581Z,8.20
2022-11-21T14:55:29.117Z,8.10
2022-11-21T14:57:52.052Z,8.00
2022-11-21T15:00:58.517Z,7.90
2022-11-21T15:03:22.819Z,7.80
2022-11-21T15:06:04.450Z,7.80
2022-11-21T15:09:06.050Z,7.70
2022-11-21T15:11:30.752Z,7.60
2022-11-21T15:14:18.040Z,7.70
2022-11-21T15:16:51.397Z,7.70
2022-11-21T15:19:29.401Z,7.50
2022-11-21T15:21:58.933Z,7.50
2022-11-21T15:24:42.726Z,7.50
2022-11-21T15:27:28.060Z,7.50
2022-11-21T15:30:21.962Z,7.40
2022-11-21T15:33:05.401Z,7.40
2022-11-21T15:35:38.231Z,7.40
2022-11-21T15:38:30.109Z,7.30
2022-11-21T15:40:59.109Z,7.30
2022-11-21T15:43:44.941Z,7.30
2022-11-21T15:46:32.309Z,7.30
2022-11-21T15:49:31.488Z,7.20
2022-11-21T15:52:10.372Z,7.30
2022-11-21T15:54:38.149Z,7.30
2022-11-21T15:57:04.920Z,7.20
2022-11-21T15:59:32.033Z,7.20
2022-11-21T16:01:59.045Z,7.20
2022-11-21T16:04:26.383Z,7.20
2022-11-21T16:06:56.486Z,7.30
2022-11-21T16:09:23.412Z,7.30
2022-11-21T16:11:50.124Z,7.30
2022-11-21T16:14:18.529Z,7.30
2022-11-21T16:16:47.552Z,7.30
2022-11-21T16:19:15.526Z,7.30
2022-11-21T16:21:42.514Z,7.30
2022-11-21T16:24:09.349Z,7.30
2022-11-21T16:26:36.266Z,7.30
2022-11-21T16:29:05.418Z,7.30
2022-11-21T16:31:32.597Z,7.30
2022-11-21T16:34:00.571Z,7.20
2022-11-21T16:36:31.981Z,7.20
2022-11-21T16:39:07.724Z,7.30
2022-11-21T16:41:36.232Z,7.30
2022-11-21T16:44:03.012Z,7.30
2022-11-21T16:46:42.460Z,7.30
2022-11-21T16:49:09.835Z,7.30
2022-11-21T16:51:36.741Z,7.30
2022-11-21T16:54:08.609Z,7.30
2022-11-21T16:56:36.061Z,7.20
2022-11-21T16:59:02.816Z,7.20
2022-11-21T17:01:29.640Z,7.20
2022-11-21T17:03:56.572Z,7.20
2022-11-21T17:06:27.069Z,7.30
2022-11-21T17:08:54.107Z,7.20
2022-11-21T17:11:30.508Z,7.20
2022-11-21T17:14:01.010Z,7.10
2022-11-21T17:16:28.465Z,7.10
2022-11-21T17:18:56.888Z,7.10
2022-11-21T17:21:24.171Z,7.10
2022-11-21T17:23:51.100Z,7.00
2022-11-21T17:26:23.186Z,7.00
2022-11-21T17:28:55.038Z,7.10
2022-11-21T17:31:22.321Z,7.10
2022-11-21T17:33:52.256Z,7.10
2022-11-21T17:36:21.589Z,7.10
2022-11-21T17:38:48.902Z,7.20
2022-11-21T17:41:17.947Z,7.20
2022-11-21T17:43:45.285Z,7.20
2022-11-21T17:46:14.262Z,7.20
2022-11-21T17:48:41.440Z,7.20
2022-11-21T17:51:14.752Z,7.20
2022-11-21T17:53:43.942Z,7.30
2022-11-21T17:56:13.742Z,7.30
2022-11-21T17:58:40.999Z,7.20
2022-11-21T18:01:11.126Z,7.20
2022-11-21T18:03:38.055Z,7.20
2022-11-21T18:06:07.999Z,7.20
2022-11-21T18:08:40.775Z,7.30
2022-11-21T18:11:09.522Z,7.30
2022-11-21T18:13:36.759Z,7.30
2022-11-21T18:16:09.768Z,7.40
2022-11-21T18:18:36.768Z,7.30
2022-11-21T18:21:12.116Z,7.30
2022-11-21T18:23:39.370Z,7.30
2022-11-21T18:26:24.366Z,7.30
2022-11-21T18:29:20.163Z,7.30
2022-11-21T18:31:42.982Z,7.30
2022-11-21T18:34:10.471Z,7.30
2022-11-21T18:36:37.292Z,7.40
2022-11-21T18:39:10.642Z,7.30
2022-11-21T18:41:40.774Z,7.30
2022-11-21T18:44:07.777Z,7.30
2022-11-21T18:46:36.654Z,7.30
2022-11-21T18:49:07.321Z,7.20
2022-11-21T18:51:37.005Z,7.20
2022-11-21T18:54:10.411Z,7.20
2022-11-21T18:56:39.135Z,7.20
2022-11-21T18:59:06.654Z,7.10
2022-11-21T19:01:35.079Z,7.10
2022-11-21T19:04:02.111Z,7.20
2022-11-21T19:06:29.274Z,7.10
2022-11-21T19:08:57.654Z,7.20
2022-11-21T19:11:29.774Z,7.10
2022-11-21T19:13:57.720Z,7.10
2022-11-21T19:16:27.234Z,7.20
2022-11-21T19:19:26.408Z,7.20
2022-11-21T19:21:42.244Z,7.20
2022-11-21T19:24:14.046Z,7.10
2022-11-21T19:26:41.444Z,7.20
2022-11-21T19:29:08.380Z,7.20
2022-11-21T19:31:39.305Z,7.20
2022-11-21T19:34:09.731Z,7.20
2022-11-21T19:36:36.653Z,7.20
2022-11-21T19:39:03.459Z,7.20
2022-11-21T19:41:30.823Z,7.30
2022-11-21T19:43:59.471Z,7.30
2022-11-21T19:46:28.517Z,7.30
2022-11-21T19:48:56.722Z,7.30
2022-11-21T19:51:28.728Z,7.30
2022-11-21T19:53:55.553Z,7.40
2022-11-21T19:56:24.555Z,7.30
2022-11-21T19:58:52.512Z,7.30
2022-11-21T20:01:25.289Z,7.40
2022-11-21T20:03:55.199Z,7.40
2022-11-21T20:06:25.169Z,7.40
2022-11-21T20:08:54.662Z,7.40
2022-11-21T20:11:22.487Z,7.50
2022-11-21T20:13:50.791Z,7.50
2022-11-21T20:16:19.735Z,7.50
2022-11-21T20:18:46.821Z,7.50
2022-11-21T20:21:14.484Z,7.50
2022-11-21T20:23:41.278Z,7.50
2022-11-21T20:26:09.200Z,7.50
2022-11-21T20:28:36.849Z,7.50
2022-11-21T20:31:15.102Z,7.40
2022-11-21T20:33:44.828Z,7.40
2022-11-21T20:36:18.723Z,7.40
2022-11-21T20:38:51.454Z,7.40
2022-11-21T20:41:19.165Z,7.50
2022-11-21T20:44:32.365Z,7.40
2022-11-21T20:46:34.413Z,7.40
2022-11-21T20:49:01.640Z,7.40
2022-11-21T20:52:56.016Z,7.40
2022-11-21T20:54:15.237Z,7.40
2022-11-21T20:56:44.429Z,7.50
2022-11-21T20:59:11.516Z,7.50
2022-11-21T21:01:38.425Z,7.50
2022-11-21T21:04:05.237Z,7.40
2022-11-21T21:06:32.240Z,7.50
2022-11-21T21:08:59.085Z,7.50
2022-11-21T21:11:50.460Z,7.50
2022-11-21T21:14:12.692Z,7.50
2022-11-21T21:16:39.517Z,7.50
2022-11-21T21:19:06.389Z,7.50
2022-11-21T21:21:33.208Z,7.50
2022-11-21T21:24:08.659Z,7.50
2022-11-21T21:26:42.589Z,7.40
2022-11-21T21:29:18.426Z,7.40
2022-11-21T21:31:51.116Z,7.50
2022-11-21T21:34:19.689Z,7.40
2022-11-21T21:36:47.084Z,7.40
2022-11-21T21:39:14.172Z,7.40
2022-11-21T21:41:44.521Z,7.40
2022-11-21T21:44:13.021Z,7.30
2022-11-21T21:46:40.069Z,7.40
2022-11-21T21:49:06.825Z,7.40
2022-11-21T21:58:04.418Z,7.40
2022-11-21T22:00:31.175Z,7.30
2022-11-21T22:02:57.922Z,7.30
2022-11-21T22:05:24.651Z,7.30
2022-11-21T22:07:51.379Z,7.30
2022-11-21T22:10:18.204Z,7.20
2022-11-21T22:12:47.973Z,7.30
2022-11-21T22:15:14.853Z,7.20
2022-11-21T22:17:41.604Z,7.20
2022-11-21T22:20:08.919Z,7.20
2022-11-21T22:22:35.644Z,7.20
2022-11-21T22:25:02.405Z,7.20
2022-11-21T22:27:30.848Z,7.20
2022-11-21T22:29:57.639Z,7.20
2022-11-21T22:32:24.392Z,7.20
2022-11-21T22:34:51.258Z,7.20
2022-11-21T22:37:18.633Z,7.10
2022-11-21T22:39:45.355Z,7.10
2022-11-21T22:42:12.084Z,7.10
2022-11-21T22:44:38.830Z,7.10
2022-11-21T22:47:05.609Z,7.10
2022-11-21T22:49:32.362Z,7.10
2022-11-21T22:51:59.186Z,7.00
2022-11-21T22:54:25.958Z,7.10
2022-11-21T22:56:52.816Z,7.00
2022-11-21T22:59:19.502Z,7.10
2022-11-21T23:01:46.335Z,7.10
2022-11-21T23:04:17.508Z,7.00
2022-11-21T23:06:44.774Z,6.90
2022-11-21T23:09:11.548Z,6.90
2022-11-21T23:11:40.817Z,7.00
2022-11-21T23:14:08.238Z,6.90
2022-11-21T23:16:34.981Z,6.90
2022-11-21T23:19:02.027Z,6.90
2022-11-21T23:21:28.968Z,6.90
2022-11-21T23:23:55.746Z,6.90
2022-11-21T23:26:23.404Z,6.90
2022-11-21T23:28:50.206Z,6.90
2022-11-21T23:31:17.272Z,6.90
2022-11-21T23:33:44.138Z,7.00
2022-11-21T23:36:10.981Z,6.90
2022-11-21T23:38:37.734Z,6.90
2022-11-21T23:41:04.564Z,7.00
2022-11-21T23:43:31.296Z,7.00
2022-11-21T23:45:58.033Z,7.00
2022-11-21T23:48:25.004Z,7.00
2022-11-21T23:50:52.195Z,6.90
2022-11-21T23:53:19.820Z,7.00
2022-11-21T23:55:47.589Z,7.00
2022-11-21T23:58:14.769Z,7.00
